createdAt,value
2018-09-15T00:00:55.559Z,13.50
2018-09-15T00:03:24.153Z,13.50
2018-09-15T00:05:52.290Z,13.40
2018-09-15T00:08:20.374Z,13.40
2018-09-15T00:10:48.778Z,13.30
2018-09-15T00:13:17.280Z,13.40
2018-09-15T00:15:45.380Z,13.40
2018-09-15T00:18:15.054Z,13.40
2018-09-15T00:20:43.167Z,13.40
2018-09-15T00:23:11.878Z,13.20
2018-09-15T00:25:40.710Z,13.10
2018-09-15T00:28:09.495Z,13.00
2018-09-15T00:30:37.574Z,13.00
2018-09-15T00:33:05.751Z,12.90
2018-09-15T00:35:33.954Z,12.90
2018-09-15T00:38:02.085Z,12.90
2018-09-15T00:40:30.194Z,12.90
2018-09-15T00:42:58.337Z,12.90
2018-09-15T00:45:26.474Z,12.90
2018-09-15T00:47:54.558Z,12.90
2018-09-15T00:50:22.659Z,12.90
2018-09-15T00:52:50.753Z,13.00
2018-09-15T00:55:18.855Z,13.00
2018-09-15T00:57:46.937Z,12.90
2018-09-15T01:00:15.029Z,12.80
2018-09-15T01:02:43.105Z,12.80
2018-09-15T01:05:11.182Z,12.90
2018-09-15T01:07:39.248Z,13.00
2018-09-15T01:10:07.521Z,13.00
2018-09-15T01:12:35.611Z,12.90
2018-09-15T01:15:03.718Z,13.00
2018-09-15T01:17:31.787Z,13.10
2018-09-15T01:19:59.903Z,13.00
2018-09-15T01:22:27.978Z,12.90
2018-09-15T01:24:56.077Z,12.90
2018-09-15T01:27:24.140Z,12.80
2018-09-15T01:29:52.230Z,12.70
2018-09-15T01:32:20.322Z,12.80
2018-09-15T01:34:48.449Z,12.70
2018-09-15T01:37:16.662Z,12.60
2018-09-15T01:39:44.736Z,12.60
2018-09-15T01:42:12.807Z,12.60
2018-09-15T01:44:40.929Z,12.50
2018-09-15T01:47:09.016Z,12.60
2018-09-15T01:49:37.105Z,12.60
2018-09-15T01:52:05.193Z,12.70
2018-09-15T01:54:33.305Z,12.70
2018-09-15T01:57:01.373Z,12.60
2018-09-15T01:59:29.466Z,12.60
2018-09-15T02:01:57.552Z,12.60
2018-09-15T02:04:25.635Z,12.40
2018-09-15T02:06:53.798Z,12.50
2018-09-15T02:09:21.877Z,12.50
2018-09-15T02:11:49.936Z,12.60
2018-09-15T02:14:18.052Z,12.60
2018-09-15T02:16:46.124Z,12.60
2018-09-15T02:19:14.229Z,12.70
2018-09-15T02:21:42.324Z,12.70
2018-09-15T02:24:10.429Z,12.80
2018-09-15T02:26:38.502Z,12.90
2018-09-15T02:29:06.629Z,12.90
2018-09-15T02:31:34.726Z,12.80
2018-09-15T02:34:02.817Z,12.90
2018-09-15T02:36:30.894Z,12.80
2018-09-15T02:38:58.989Z,13.00
2018-09-15T02:41:27.080Z,13.00
2018-09-15T02:43:55.240Z,13.00
2018-09-15T02:46:23.322Z,13.10
2018-09-15T02:48:51.422Z,13.20
2018-09-15T02:51:19.518Z,13.30
2018-09-15T02:53:47.607Z,13.40
2018-09-15T02:56:15.690Z,13.40
2018-09-15T02:58:43.765Z,13.50
2018-09-15T03:01:11.877Z,13.60
2018-09-15T03:03:39.972Z,13.60
2018-09-15T03:06:08.070Z,13.80
2018-09-15T03:08:36.169Z,13.80
2018-09-15T03:11:04.293Z,13.90
2018-09-15T03:13:32.396Z,13.80
2018-09-15T03:16:00.505Z,13.80
2018-09-15T03:18:28.581Z,13.70
2018-09-15T03:20:56.648Z,13.80
2018-09-15T03:23:24.765Z,13.70
2018-09-15T03:25:52.858Z,13.80
2018-09-15T03:28:20.920Z,13.80
2018-09-15T03:30:49.069Z,13.70
2018-09-15T03:33:17.246Z,13.70
2018-09-15T03:35:45.325Z,13.70
2018-09-15T03:38:13.473Z,13.70
2018-09-15T03:40:41.553Z,13.60
2018-09-15T03:43:09.625Z,13.60
2018-09-15T03:45:37.705Z,13.60
2018-09-15T03:48:05.812Z,13.60
2018-09-15T03:50:33.968Z,13.60
2018-09-15T03:53:02.053Z,13.60
2018-09-15T03:55:30.144Z,13.60
2018-09-15T03:57:58.210Z,13.60
2018-09-15T04:00:26.303Z,13.60
2018-09-15T04:02:54.382Z,13.60
2018-09-15T04:05:22.486Z,13.60
2018-09-15T04:07:50.553Z,13.60
2018-09-15T04:10:18.629Z,13.60
2018-09-15T04:12:47.085Z,13.60
2018-09-15T04:15:15.386Z,13.60
2018-09-15T04:17:43.538Z,13.60
2018-09-15T04:20:11.652Z,13.60
2018-09-15T04:22:39.892Z,13.60
2018-09-15T04:25:08.015Z,13.60
2018-09-15T04:27:36.141Z,13.60
2018-09-15T04:30:04.566Z,13.60
2018-09-15T04:32:32.805Z,13.60
2018-09-15T04:35:00.869Z,13.60
2018-09-15T04:37:28.989Z,13.60
2018-09-15T04:39:57.073Z,13.70
2018-09-15T04:42:31.782Z,13.70
2018-09-15T04:44:59.872Z,13.80
2018-09-15T04:47:27.940Z,13.80
2018-09-15T04:49:56.032Z,13.80
2018-09-15T04:52:24.109Z,13.90
2018-09-15T04:54:52.280Z,13.90
2018-09-15T04:57:20.359Z,13.90
2018-09-15T04:59:48.470Z,13.90
2018-09-15T05:02:16.541Z,13.90
2018-09-15T05:04:44.705Z,13.90
2018-09-15T05:07:12.798Z,13.80
2018-09-15T05:09:40.874Z,13.80
2018-09-15T05:12:08.956Z,13.80
2018-09-15T05:14:37.023Z,13.90
2018-09-15T05:17:05.106Z,13.90
2018-09-15T05:19:33.240Z,13.90
2018-09-15T05:22:01.339Z,13.90
2018-09-15T05:24:29.400Z,14.00
2018-09-15T05:26:57.463Z,14.10
2018-09-15T05:29:25.566Z,14.20
2018-09-15T05:31:53.630Z,14.10
2018-09-15T05:34:21.715Z,14.20
2018-09-15T05:36:50.285Z,14.20
2018-09-15T05:39:18.357Z,14.20
2018-09-15T05:41:46.429Z,14.30
2018-09-15T05:44:14.496Z,14.30
2018-09-15T05:46:42.628Z,14.30
2018-09-15T05:49:10.720Z,14.30
2018-09-15T05:51:38.949Z,14.20
2018-09-15T05:54:07.069Z,14.20
2018-09-15T05:56:35.243Z,14.10
2018-09-15T05:59:03.349Z,14.20
2018-09-15T06:01:31.444Z,14.20
2018-09-15T06:03:59.701Z,14.20
2018-09-15T06:06:27.783Z,14.10
2018-09-15T06:08:55.861Z,14.20
2018-09-15T06:11:23.949Z,14.10
2018-09-15T06:13:52.044Z,14.10
2018-09-15T06:16:20.109Z,14.20
2018-09-15T06:18:48.232Z,14.30
2018-09-15T06:21:16.338Z,14.20
2018-09-15T06:23:45.380Z,14.20
2018-09-15T06:26:13.926Z,14.30
2018-09-15T06:28:42.331Z,14.30
2018-09-15T06:31:10.458Z,14.40
2018-09-15T06:33:38.572Z,14.50
2018-09-15T06:36:06.637Z,14.50
2018-09-15T06:38:34.739Z,14.70
2018-09-15T06:41:02.838Z,14.90
2018-09-15T06:43:30.933Z,15.10
2018-09-15T06:45:59.116Z,15.30
2018-09-15T06:48:27.497Z,15.40
2018-09-15T06:50:55.658Z,15.50
2018-09-15T06:53:23.761Z,15.60
2018-09-15T06:55:51.869Z,15.70
2018-09-15T06:58:19.947Z,15.90
2018-09-15T07:00:48.062Z,16.00
2018-09-15T07:03:16.129Z,16.10
2018-09-15T07:05:44.198Z,16.00
2018-09-15T07:08:12.291Z,16.00
2018-09-15T07:10:40.360Z,16.00
2018-09-15T07:13:08.507Z,16.10
2018-09-15T07:15:36.606Z,16.10
2018-09-15T07:18:04.682Z,16.20
2018-09-15T07:20:32.777Z,16.20
2018-09-15T07:23:00.856Z,16.20
2018-09-15T07:25:28.994Z,16.30
2018-09-15T07:27:57.073Z,16.40
2018-09-15T07:30:25.166Z,16.50
2018-09-15T07:32:53.258Z,16.60
2018-09-15T07:35:21.330Z,16.60
2018-09-15T07:37:49.523Z,16.70
2018-09-15T07:40:17.550Z,16.80
2018-09-15T07:42:45.623Z,16.80
2018-09-15T07:45:13.692Z,16.90
2018-09-15T07:47:41.834Z,17.00
2018-09-15T07:50:09.922Z,17.10
2018-09-15T07:52:37.996Z,17.20
2018-09-15T07:55:06.064Z,17.10
2018-09-15T07:57:34.227Z,17.10
2018-09-15T08:00:02.205Z,17.20
2018-09-15T08:02:30.349Z,17.40
2018-09-15T08:04:58.567Z,17.50
2018-09-15T08:07:26.642Z,17.70
2018-09-15T08:09:54.774Z,17.70
2018-09-15T08:12:22.858Z,17.70
2018-09-15T08:14:50.965Z,17.80
2018-09-15T08:17:19.030Z,18.00
2018-09-15T08:19:47.137Z,18.00
2018-09-15T08:22:15.208Z,18.30
2018-09-15T08:24:43.389Z,18.40
2018-09-15T08:27:11.481Z,18.60
2018-09-15T08:29:39.604Z,18.70
2018-09-15T08:32:07.789Z,19.00
2018-09-15T08:34:35.857Z,19.10
2018-09-15T08:37:03.942Z,19.30
2018-09-15T08:39:32.015Z,19.70
2018-09-15T08:42:00.168Z,19.90
2018-09-15T08:44:28.249Z,20.10
2018-09-15T08:46:56.338Z,20.30
2018-09-15T08:49:24.427Z,20.40
2018-09-15T08:51:52.557Z,20.60
2018-09-15T08:54:20.748Z,20.90
2018-09-15T08:56:48.838Z,21.20
2018-09-15T08:59:16.928Z,21.50
2018-09-15T09:01:45.006Z,21.70
2018-09-15T09:04:13.829Z,21.90
2018-09-15T09:06:42.034Z,21.80
2018-09-15T09:09:11.491Z,21.80
2018-09-15T09:11:40.477Z,22.30
2018-09-15T09:14:08.617Z,22.60
2018-09-15T09:16:36.703Z,23.00
2018-09-15T09:19:04.858Z,23.40
2018-09-15T09:21:32.941Z,23.60
2018-09-15T09:24:01.035Z,23.80
2018-09-15T09:26:29.302Z,24.30
2018-09-15T09:28:57.257Z,24.40
2018-09-15T09:31:25.404Z,24.70
2018-09-15T09:33:53.489Z,25.10
2018-09-15T09:36:21.612Z,25.50
2018-09-15T09:38:49.698Z,25.70
2018-09-15T09:41:17.928Z,25.50
2018-09-15T09:43:46.166Z,25.50
2018-09-15T09:46:14.382Z,25.40
2018-09-15T09:48:42.519Z,25.20
2018-09-15T09:51:10.608Z,25.30
2018-09-15T09:53:38.710Z,26.00
2018-09-15T09:56:06.800Z,26.80
2018-09-15T09:58:34.959Z,26.80
2018-09-15T10:01:08.409Z,26.20
2018-09-15T10:03:37.609Z,26.00
2018-09-15T10:06:05.728Z,26.50
2018-09-15T10:08:33.943Z,27.20
2018-09-15T10:11:02.019Z,27.80
2018-09-15T10:13:30.202Z,28.10
2018-09-15T10:15:58.315Z,28.20
2018-09-15T10:18:26.393Z,28.60
2018-09-15T10:20:54.481Z,28.10
2018-09-15T10:23:22.569Z,28.20
2018-09-15T10:25:50.746Z,28.90
2018-09-15T10:28:18.849Z,29.60
2018-09-15T10:30:46.954Z,29.10
2018-09-15T10:33:15.090Z,29.20
2018-09-15T10:35:43.432Z,29.30
2018-09-15T10:38:11.590Z,28.60
2018-09-15T10:40:39.737Z,28.70
2018-09-15T10:43:08.493Z,28.90
2018-09-15T10:45:36.659Z,28.40
2018-09-15T10:48:04.957Z,28.80
2018-09-15T10:50:33.050Z,29.80
2018-09-15T10:53:01.246Z,29.80
2018-09-15T10:55:29.373Z,30.20
2018-09-15T10:57:57.506Z,30.60
2018-09-15T11:00:25.639Z,30.50
2018-09-15T11:02:53.749Z,31.00
2018-09-15T11:05:21.837Z,30.40
2018-09-15T11:07:49.914Z,30.40
2018-09-15T11:10:18.005Z,30.40
2018-09-15T11:12:46.102Z,30.90
2018-09-15T11:15:14.248Z,31.00
2018-09-15T11:17:42.341Z,31.10
2018-09-15T11:20:10.462Z,30.50
2018-09-15T11:22:38.612Z,30.40
2018-09-15T11:25:06.676Z,29.80
2018-09-15T11:27:34.948Z,29.80
2018-09-15T11:30:06.923Z,30.40
2018-09-15T11:32:35.091Z,31.00
2018-09-15T11:35:03.253Z,31.10
2018-09-15T11:37:32.075Z,30.30
2018-09-15T11:40:00.383Z,31.10
2018-09-15T11:42:29.194Z,31.10
2018-09-15T11:44:57.310Z,31.90
2018-09-15T11:47:25.374Z,33.10
2018-09-15T11:49:54.446Z,33.40
2018-09-15T11:52:22.521Z,33.00
2018-09-15T11:54:50.581Z,33.40
2018-09-15T11:57:18.658Z,32.80
2018-09-15T11:59:46.747Z,32.70
2018-09-15T12:02:14.841Z,32.50
2018-09-15T12:04:43.103Z,32.40
2018-09-15T12:07:11.226Z,31.60
2018-09-15T12:09:39.329Z,32.00
2018-09-15T12:12:07.389Z,31.40
2018-09-15T12:14:35.501Z,30.50
2018-09-15T12:17:03.562Z,29.20
2018-09-15T12:19:31.642Z,27.90
2018-09-15T12:21:59.757Z,27.10
2018-09-15T12:24:27.856Z,26.50
2018-09-15T12:26:55.925Z,26.30
2018-09-15T12:29:24.005Z,26.60
2018-09-15T12:31:52.069Z,26.90
2018-09-15T12:34:20.147Z,27.00
2018-09-15T12:36:48.218Z,27.20
2018-09-15T12:39:16.299Z,27.30
2018-09-15T12:41:44.418Z,27.20
2018-09-15T12:44:12.518Z,26.90
2018-09-15T12:46:40.730Z,26.40
2018-09-15T12:49:08.809Z,26.10
2018-09-15T12:51:36.886Z,25.50
2018-09-15T12:54:05.005Z,25.00
2018-09-15T12:56:33.072Z,25.20
2018-09-15T12:59:01.209Z,25.20
2018-09-15T13:01:29.308Z,25.20
2018-09-15T13:03:57.430Z,25.10
2018-09-15T13:06:25.555Z,25.00
2018-09-15T13:08:53.594Z,25.20
2018-09-15T13:11:21.681Z,25.50
2018-09-15T13:13:49.788Z,25.50
2018-09-15T13:16:17.939Z,25.30
2018-09-15T13:18:46.023Z,25.20
2018-09-15T13:21:14.123Z,25.00
2018-09-15T13:23:42.273Z,25.00
2018-09-15T13:26:10.330Z,25.00
2018-09-15T13:28:38.485Z,25.10
2018-09-15T13:31:06.557Z,25.30
2018-09-15T13:33:34.634Z,25.50
2018-09-15T13:36:02.749Z,25.60
2018-09-15T13:38:30.921Z,25.40
2018-09-15T13:40:58.980Z,25.10
2018-09-15T13:43:27.041Z,24.60
2018-09-15T13:45:55.153Z,24.60
2018-09-15T13:48:23.242Z,24.60
2018-09-15T13:50:51.322Z,24.60
2018-09-15T13:53:19.451Z,24.40
2018-09-15T13:55:47.501Z,24.30
2018-09-15T13:58:15.609Z,24.30
2018-09-15T14:00:43.710Z,24.30
2018-09-15T14:03:11.789Z,24.30
2018-09-15T14:05:39.916Z,24.30
2018-09-15T14:08:07.995Z,24.50
2018-09-15T14:10:36.196Z,24.70
2018-09-15T14:13:04.208Z,24.80
2018-09-15T14:15:32.290Z,24.80
2018-09-15T14:18:01.476Z,24.70
2018-09-15T14:20:29.552Z,24.50
2018-09-15T14:22:57.626Z,24.60
2018-09-15T14:25:25.686Z,24.50
2018-09-15T14:27:53.761Z,24.50
2018-09-15T14:30:21.823Z,24.20
2018-09-15T14:32:49.921Z,23.90
2018-09-15T14:35:18.045Z,23.80
2018-09-15T14:37:46.146Z,23.70
2018-09-15T14:40:14.214Z,23.40
2018-09-15T14:42:42.313Z,23.20
2018-09-15T14:45:10.382Z,23.10
2018-09-15T14:47:38.506Z,22.90
2018-09-15T14:50:06.633Z,22.70
2018-09-15T14:52:34.681Z,22.60
2018-09-15T14:55:02.826Z,22.70
2018-09-15T14:57:30.903Z,22.60
2018-09-15T14:59:58.956Z,22.70
2018-09-15T15:02:27.050Z,22.60
2018-09-15T15:04:55.174Z,22.60
2018-09-15T15:07:23.276Z,22.70
2018-09-15T15:09:51.386Z,22.80
2018-09-15T15:12:19.524Z,22.70
2018-09-15T15:14:47.708Z,22.60
2018-09-15T15:17:15.858Z,22.60
2018-09-15T15:19:44.040Z,22.40
2018-09-15T15:22:12.214Z,22.40
2018-09-15T15:24:40.352Z,22.40
2018-09-15T15:27:08.548Z,22.50
2018-09-15T15:29:36.731Z,22.30
2018-09-15T15:32:04.858Z,22.10
2018-09-15T15:34:33.011Z,22.10
2018-09-15T15:37:01.193Z,22.10
2018-09-15T15:39:29.363Z,22.10
2018-09-15T15:41:57.554Z,22.00
2018-09-15T15:44:25.721Z,22.00
2018-09-15T15:47:00.441Z,21.90
2018-09-15T15:49:28.704Z,21.90
2018-09-15T15:51:56.772Z,21.90
2018-09-15T15:54:24.848Z,21.90
2018-09-15T15:56:52.972Z,21.80
2018-09-15T15:59:21.038Z,21.60
2018-09-15T16:01:49.296Z,21.60
2018-09-15T16:04:17.332Z,21.50
2018-09-15T16:06:45.479Z,21.40
2018-09-15T16:09:14.344Z,21.30
2018-09-15T16:11:42.437Z,21.30
2018-09-15T16:14:10.545Z,21.20
2018-09-15T16:16:38.638Z,21.20
2018-09-15T16:19:06.725Z,21.10
2018-09-15T16:21:34.819Z,21.10
2018-09-15T16:24:03.182Z,21.00
2018-09-15T16:26:31.253Z,20.90
2018-09-15T16:28:59.341Z,20.90
2018-09-15T16:31:27.445Z,20.80
2018-09-15T16:33:56.176Z,20.80
2018-09-15T16:36:25.125Z,20.70
2018-09-15T16:38:53.193Z,20.70
2018-09-15T16:41:21.261Z,20.70
2018-09-15T16:43:49.322Z,20.60
2018-09-15T16:46:17.410Z,20.60
2018-09-15T16:48:45.457Z,20.50
2018-09-15T16:51:13.541Z,20.40
2018-09-15T16:53:41.616Z,20.40
2018-09-15T16:56:09.681Z,20.30
2018-09-15T16:58:37.766Z,20.30
2018-09-15T17:01:06.157Z,20.20
2018-09-15T17:03:34.298Z,20.10
2018-09-15T17:06:02.338Z,20.10
2018-09-15T17:08:30.501Z,20.00
2018-09-15T17:10:58.597Z,19.90
2018-09-15T17:13:26.699Z,19.80
2018-09-15T17:15:54.891Z,19.70
2018-09-15T17:18:22.987Z,19.70
2018-09-15T17:20:51.074Z,19.70
2018-09-15T17:23:19.192Z,19.70
2018-09-15T17:25:47.281Z,19.60
2018-09-15T17:28:15.378Z,19.60
2018-09-15T17:30:43.596Z,19.50
2018-09-15T17:33:11.700Z,19.40
2018-09-15T17:35:39.782Z,19.40
2018-09-15T17:38:07.878Z,19.40
2018-09-15T17:40:35.993Z,19.40
2018-09-15T17:43:04.093Z,19.30
2018-09-15T17:45:32.238Z,19.30
2018-09-15T17:48:00.275Z,19.30
2018-09-15T17:50:28.371Z,19.20
2018-09-15T17:52:56.521Z,19.20
2018-09-15T17:55:24.614Z,19.10
2018-09-15T17:57:52.721Z,19.10
2018-09-15T18:00:20.812Z,19.10
2018-09-15T18:02:48.928Z,19.00
2018-09-15T18:05:17.021Z,19.00
2018-09-15T18:07:45.159Z,19.00
2018-09-15T18:10:13.280Z,18.90
2018-09-15T18:12:41.353Z,18.90
2018-09-15T18:15:09.482Z,18.80
2018-09-15T18:17:37.565Z,18.80
2018-09-15T18:20:05.709Z,18.70
2018-09-15T18:22:33.833Z,18.70
2018-09-15T18:25:01.913Z,18.70
2018-09-15T18:27:30.022Z,18.60
2018-09-15T18:29:58.117Z,18.60
2018-09-15T18:32:26.209Z,18.60
2018-09-15T18:34:54.310Z,18.70
2018-09-15T18:37:22.399Z,18.60
2018-09-15T18:39:50.481Z,18.70
2018-09-15T18:42:18.554Z,18.60
2018-09-15T18:44:47.317Z,18.60
2018-09-15T18:47:15.418Z,18.70
2018-09-15T18:49:43.504Z,18.60
2018-09-15T18:52:11.564Z,18.60
2018-09-15T18:54:39.671Z,18.50
2018-09-15T18:57:07.846Z,18.50
2018-09-15T18:59:36.104Z,18.50
2018-09-15T19:02:04.249Z,18.40
2018-09-15T19:04:32.353Z,18.40
2018-09-15T19:07:00.458Z,18.30
2018-09-15T19:09:28.662Z,18.30
2018-09-15T19:11:56.745Z,18.30
2018-09-15T19:14:24.845Z,18.20
2018-09-15T19:16:52.931Z,18.30
2018-09-15T19:19:21.028Z,18.20
2018-09-15T19:21:49.473Z,18.20
2018-09-15T19:24:17.576Z,18.20
2018-09-15T19:26:45.721Z,18.20
2018-09-15T19:29:13.796Z,18.20
2018-09-15T19:31:41.980Z,18.20
2018-09-15T19:34:10.078Z,18.20
2018-09-15T19:36:38.194Z,18.20
2018-09-15T19:39:09.845Z,18.20
2018-09-15T19:41:37.997Z,18.20
2018-09-15T19:44:06.113Z,18.20
2018-09-15T19:46:34.265Z,18.20
2018-09-15T19:49:02.352Z,18.10
2018-09-15T19:51:30.525Z,18.10
2018-09-15T19:53:58.718Z,18.00
2018-09-15T19:56:27.006Z,18.00
2018-09-15T19:58:55.077Z,18.10
2018-09-15T20:01:23.221Z,18.10
2018-09-15T20:03:51.349Z,18.00
2018-09-15T20:06:19.450Z,18.10
2018-09-15T20:08:47.557Z,18.00
2018-09-15T20:11:15.635Z,18.10
2018-09-15T20:13:43.725Z,18.20
2018-09-15T20:16:10.924Z,18.20
2018-09-15T20:18:38.112Z,18.10
2018-09-15T20:21:05.366Z,18.00
2018-09-15T20:23:33.493Z,18.00
2018-09-15T20:26:01.575Z,17.90
2018-09-15T20:28:29.649Z,17.90
2018-09-15T20:30:57.729Z,17.80
2018-09-15T20:33:25.814Z,17.80
2018-09-15T20:35:53.902Z,17.80
2018-09-15T20:38:22.000Z,17.80
2018-09-15T20:40:50.046Z,17.70
2018-09-15T20:43:18.186Z,17.60
2018-09-15T20:45:46.282Z,17.50
2018-09-15T20:48:14.421Z,17.30
2018-09-15T20:50:42.521Z,17.20
2018-09-15T20:53:10.638Z,17.10
2018-09-15T20:55:38.741Z,17.00
2018-09-15T20:58:06.831Z,17.00
2018-09-15T21:00:34.915Z,16.90
2018-09-15T21:03:03.025Z,16.80
2018-09-15T21:05:31.116Z,16.70
2018-09-15T21:07:59.232Z,16.70
2018-09-15T21:10:27.317Z,16.50
2018-09-15T21:12:55.413Z,16.50
2018-09-15T21:15:23.514Z,16.40
2018-09-15T21:17:51.585Z,16.40
2018-09-15T21:20:19.661Z,16.30
2018-09-15T21:22:47.761Z,16.20
2018-09-15T21:25:15.873Z,16.30
2018-09-15T21:27:43.973Z,16.40
2018-09-15T21:30:12.121Z,16.40
2018-09-15T21:32:40.219Z,16.40
2018-09-15T21:35:08.302Z,16.40
2018-09-15T21:37:36.456Z,16.30
2018-09-15T21:40:04.537Z,16.30
2018-09-15T21:42:32.613Z,16.30
2018-09-15T21:45:00.697Z,16.30
2018-09-15T21:47:28.808Z,16.30
2018-09-15T21:49:56.987Z,16.30
2018-09-15T21:52:25.073Z,16.20
2018-09-15T21:54:53.167Z,16.10
2018-09-15T21:57:21.240Z,16.10
2018-09-15T21:59:49.313Z,16.10
2018-09-15T22:02:17.427Z,16.10
2018-09-15T22:04:45.493Z,16.00
2018-09-15T22:07:13.558Z,16.00
2018-09-15T22:09:41.670Z,16.00
2018-09-15T22:12:09.746Z,15.90
2018-09-15T22:14:37.809Z,15.90
2018-09-15T22:17:05.916Z,15.90
2018-09-15T22:19:34.054Z,15.90
2018-09-15T22:22:02.168Z,15.80
2018-09-15T22:24:30.267Z,15.80
2018-09-15T22:26:58.337Z,15.80
2018-09-15T22:29:26.408Z,15.80
2018-09-15T22:31:54.513Z,15.80
2018-09-15T22:34:22.589Z,15.70
2018-09-15T22:36:50.689Z,15.60
2018-09-15T22:39:19.001Z,15.60
2018-09-15T22:41:47.077Z,15.60
2018-09-15T22:44:15.159Z,15.50
2018-09-15T22:46:43.221Z,15.30
2018-09-15T22:49:11.314Z,15.20
2018-09-15T22:51:39.420Z,15.10
2018-09-15T22:54:07.529Z,14.90
2018-09-15T22:56:35.629Z,14.90
2018-09-15T22:59:03.710Z,14.90
2018-09-15T23:01:31.820Z,14.80
2018-09-15T23:04:05.682Z,14.80
2018-09-15T23:06:34.065Z,14.80
2018-09-15T23:09:02.193Z,14.70
2018-09-15T23:11:30.293Z,14.70
2018-09-15T23:13:58.331Z,14.70
2018-09-15T23:16:26.388Z,14.60
2018-09-15T23:18:54.476Z,14.60
2018-09-15T23:21:22.548Z,14.60
2018-09-15T23:23:50.704Z,14.50
2018-09-15T23:26:18.768Z,14.50
2018-09-15T23:28:46.847Z,14.30
2018-09-15T23:31:14.892Z,14.30
2018-09-15T23:33:42.958Z,14.20
2018-09-15T23:36:11.035Z,14.30
2018-09-15T23:38:39.175Z,14.20
2018-09-15T23:41:07.569Z,14.20
2018-09-15T23:43:35.640Z,14.20
2018-09-15T23:46:03.748Z,14.20
2018-09-15T23:48:31.800Z,14.20
2018-09-15T23:50:59.895Z,14.20
2018-09-15T23:53:27.935Z,14.20
2018-09-15T23:55:55.989Z,14.20
2018-09-15T23:58:24.058Z,14.20
